createdAt,value
2022-12-24T00:01:12.612Z,12.34
2022-12-24T00:06:44.385Z,12.45
2022-12-24T00:12:16.113Z,12.37
2022-12-24T00:17:52.225Z,12.17
2022-12-24T00:23:23.753Z,12.16
2022-12-24T00:28:55.805Z,12.06
2022-12-24T00:34:27.249Z,12.31
2022-12-24T00:39:58.963Z,12.36
2022-12-24T00:45:30.788Z,12.42
2022-12-24T00:51:02.458Z,12.49
2022-12-24T00:56:34.380Z,12.37
2022-12-24T01:02:06.082Z,12.41
2022-12-24T01:07:37.741Z,12.42
2022-12-24T01:13:09.509Z,12.18
2022-12-24T01:18:47.647Z,11.91
2022-12-24T01:24:19.363Z,11.63
2022-12-24T01:29:50.900Z,11.68
2022-12-24T01:35:22.659Z,11.6
2022-12-24T01:40:54.518Z,11.11
2022-12-24T01:46:26.109Z,10.96
2022-12-24T01:51:57.953Z,11.16
2022-12-24T01:57:29.546Z,11.02
2022-12-24T02:03:01.598Z,11.06
2022-12-24T02:08:33.248Z,11.05
2022-12-24T02:14:04.890Z,10.97
2022-12-24T02:19:40.988Z,10.94
2022-12-24T02:25:12.707Z,10.95
2022-12-24T02:30:44.791Z,10.94
2022-12-24T02:36:15.967Z,11.16
2022-12-24T02:41:47.876Z,11.14
2022-12-24T02:47:19.578Z,11.2
2022-12-24T02:52:51.236Z,11.38
2022-12-24T02:58:23.047Z,11.29
2022-12-24T03:03:54.787Z,11.54
2022-12-24T03:09:26.296Z,11.8
2022-12-24T03:14:58.216Z,11.5
2022-12-24T03:20:34.347Z,11.74
2022-12-24T03:26:05.880Z,11.85
2022-12-24T03:31:37.850Z,11.82
2022-12-24T03:37:09.309Z,11.71
2022-12-24T03:42:41.435Z,11.74
2022-12-24T03:48:12.768Z,11.72
2022-12-24T03:53:44.675Z,11.76
2022-12-24T03:59:16.236Z,11.67
2022-12-24T04:04:48.119Z,11.81
2022-12-24T04:10:19.832Z,11.8
2022-12-24T04:15:51.399Z,12.03
2022-12-24T04:21:29.523Z,11.87
2022-12-24T04:27:01.257Z,11.99
2022-12-24T04:32:32.930Z,12.02
2022-12-24T04:38:04.946Z,12.0
2022-12-24T04:43:36.640Z,11.85
2022-12-24T04:49:08.055Z,11.85
2022-12-24T04:54:39.804Z,11.72
2022-12-24T05:00:11.781Z,11.72
2022-12-24T05:05:43.410Z,11.71
2022-12-24T05:11:15.153Z,11.61
2022-12-24T05:16:46.967Z,11.52
2022-12-24T05:22:25.001Z,11.16
2022-12-24T05:27:56.819Z,10.98
2022-12-24T05:33:28.670Z,10.71
2022-12-24T05:39:00.245Z,10.82
2022-12-24T05:44:31.695Z,10.78
2022-12-24T05:50:03.355Z,10.87
2022-12-24T05:55:35.618Z,10.61
2022-12-24T06:01:06.937Z,10.75
2022-12-24T06:06:38.639Z,10.98
2022-12-24T06:12:10.746Z,11.11
2022-12-24T06:17:42.202Z,11.09
2022-12-24T06:23:21.269Z,10.99
2022-12-24T06:28:51.893Z,10.84
2022-12-24T06:34:23.559Z,10.81
2022-12-24T06:39:55.437Z,10.72
2022-12-24T06:45:27.202Z,10.65
2022-12-24T06:50:58.682Z,10.54
2022-12-24T06:56:30.464Z,10.71
2022-12-24T07:02:02.246Z,10.74
2022-12-24T07:07:34.319Z,10.78
2022-12-24T07:13:05.622Z,10.73
2022-12-24T07:18:37.274Z,10.71
2022-12-24T07:24:15.415Z,10.54
2022-12-24T07:29:47.353Z,10.67
2022-12-24T07:35:18.878Z,10.91
2022-12-24T07:40:50.710Z,10.84
2022-12-24T07:46:22.579Z,10.86
2022-12-24T07:51:54.040Z,10.83
2022-12-24T07:57:25.717Z,10.76
2022-12-24T08:02:57.654Z,10.85
2022-12-24T08:08:29.243Z,10.87
2022-12-24T08:14:01.148Z,10.93
2022-12-24T08:19:32.902Z,11.12
2022-12-24T08:25:09.090Z,11.15
2022-12-24T08:30:40.790Z,11.14
2022-12-24T08:36:12.281Z,11.32
2022-12-24T08:41:43.997Z,11.37
2022-12-24T08:47:15.722Z,11.3
2022-12-24T08:52:47.457Z,11.2
2022-12-24T08:58:19.159Z,11.05
2022-12-24T09:03:50.917Z,10.99
2022-12-24T09:09:22.865Z,10.99
2022-12-24T09:14:58.140Z,11.06
2022-12-24T09:20:26.053Z,10.97
2022-12-24T09:26:02.138Z,10.95
2022-12-24T09:31:34.264Z,11.29
2022-12-24T09:37:05.800Z,11.39
2022-12-24T09:42:37.263Z,11.7
2022-12-24T09:48:09.413Z,11.79
2022-12-24T09:53:40.761Z,11.74
2022-12-24T09:59:12.494Z,11.85
2022-12-24T10:04:44.915Z,12.13
2022-12-24T10:10:15.917Z,12.1
2022-12-24T10:15:47.878Z,11.99
2022-12-24T10:21:19.331Z,12.07
2022-12-24T10:26:55.486Z,12.31
2022-12-24T10:32:27.155Z,12.1
2022-12-24T10:37:59.216Z,12.45
2022-12-24T10:43:30.659Z,12.36
2022-12-24T10:49:02.386Z,12.33
2022-12-24T10:54:34.107Z,12.47
2022-12-24T11:00:06.167Z,12.47
2022-12-24T11:05:37.682Z,12.5
2022-12-24T11:11:09.633Z,12.12
2022-12-24T11:16:40.973Z,12.29
2022-12-24T11:22:12.731Z,12.38
2022-12-24T11:27:48.956Z,12.2
2022-12-24T11:33:20.879Z,12.38
2022-12-24T11:38:52.329Z,12.35
2022-12-24T11:44:23.974Z,12.4
2022-12-24T11:50:07.272Z,12.45
2022-12-24T11:55:27.423Z,12.7
2022-12-24T12:00:59.324Z,13.0
2022-12-24T12:06:30.841Z,12.89
2022-12-24T12:12:02.954Z,12.87
2022-12-24T12:17:34.318Z,12.9
2022-12-24T12:23:06.627Z,12.84
2022-12-24T12:28:42.286Z,12.34
2022-12-24T12:34:13.882Z,12.64
2022-12-24T12:39:45.739Z,12.71
2022-12-24T12:45:17.503Z,12.76
2022-12-24T12:50:49.061Z,12.9
2022-12-24T12:56:20.776Z,12.83
2022-12-24T13:01:52.752Z,12.55
2022-12-24T13:07:24.266Z,12.43
2022-12-24T13:12:56.144Z,12.66
2022-12-24T13:18:27.645Z,12.71
2022-12-24T13:23:59.574Z,12.71
2022-12-24T13:29:35.751Z,12.68
2022-12-24T13:35:07.571Z,12.74
2022-12-24T13:40:39.164Z,12.86
2022-12-24T13:46:10.715Z,12.92
2022-12-24T13:51:42.445Z,12.65
2022-12-24T13:57:14.291Z,12.81
2022-12-24T14:02:45.923Z,12.9
2022-12-24T14:08:17.947Z,13.16
2022-12-24T14:13:49.493Z,13.22
2022-12-24T14:19:21.204Z,13.28
2022-12-24T14:24:52.760Z,13.2
2022-12-24T14:30:29.165Z,12.77
2022-12-24T14:36:00.769Z,12.39
2022-12-24T14:41:32.671Z,12.66
2022-12-24T14:47:04.865Z,12.86
2022-12-24T14:53:03.811Z,12.9
2022-12-24T14:58:07.572Z,12.78
2022-12-24T15:03:39.530Z,12.67
2022-12-24T15:09:11.609Z,12.44
2022-12-24T15:14:42.609Z,12.37
2022-12-24T15:20:14.330Z,12.33
2022-12-24T15:25:46.210Z,12.11
2022-12-24T15:31:22.521Z,12.21
2022-12-24T15:36:53.873Z,12.2
2022-12-24T15:42:25.759Z,12.07
2022-12-24T15:47:57.333Z,12.12
2022-12-24T15:53:29.236Z,12.07
2022-12-24T15:59:01.036Z,12.05
2022-12-24T16:04:33.111Z,11.94
2022-12-24T16:10:05.071Z,11.92
2022-12-24T16:15:35.983Z,11.81
2022-12-24T16:21:07.700Z,11.69
2022-12-24T16:26:39.910Z,11.68
2022-12-24T16:32:15.500Z,11.58
2022-12-24T16:37:47.407Z,11.71
2022-12-24T16:43:19.449Z,11.67
2022-12-24T16:48:50.868Z,11.88
2022-12-24T16:54:22.405Z,11.98
2022-12-24T16:59:54.557Z,11.98
2022-12-24T17:05:25.858Z,11.98
2022-12-24T17:10:57.563Z,11.99
2022-12-24T17:16:29.290Z,11.99
2022-12-24T17:22:01.230Z,11.66
2022-12-24T17:27:32.698Z,11.78
2022-12-24T17:33:14.253Z,11.9
2022-12-24T17:38:40.765Z,11.95
2022-12-24T17:44:12.317Z,11.94
2022-12-24T17:49:44.181Z,11.92
2022-12-24T17:55:15.987Z,11.84
2022-12-24T18:00:47.659Z,11.71
2022-12-24T18:06:19.188Z,11.62
2022-12-24T18:11:51.245Z,11.64
2022-12-24T18:17:22.636Z,11.47
2022-12-24T18:22:54.619Z,11.49
2022-12-24T18:28:26.324Z,11.64
2022-12-24T18:34:02.203Z,11.48
2022-12-24T18:39:34.148Z,11.68
2022-12-24T18:45:06.024Z,11.66
2022-12-24T18:50:37.362Z,11.77
2022-12-24T18:56:09.316Z,11.64
2022-12-24T19:01:40.841Z,11.72
2022-12-24T19:07:13.087Z,11.73
2022-12-24T19:12:44.457Z,11.68
2022-12-24T19:18:16.167Z,11.6
2022-12-24T19:23:47.727Z,11.67
2022-12-24T19:29:19.618Z,11.64
2022-12-24T19:34:55.721Z,11.5
2022-12-24T19:40:27.205Z,11.68
2022-12-24T19:45:59.042Z,11.46
2022-12-24T19:51:30.638Z,11.58
2022-12-24T19:57:02.414Z,11.47
2022-12-24T20:02:34.384Z,11.53
2022-12-24T20:08:05.826Z,11.54
2022-12-24T20:13:38.014Z,11.72
2022-12-24T20:19:09.472Z,11.67
2022-12-24T20:24:40.952Z,11.57
2022-12-24T20:30:12.720Z,11.44
2022-12-24T20:35:50.844Z,11.48
2022-12-24T20:41:22.532Z,11.58
2022-12-24T20:46:54.889Z,11.31
2022-12-24T20:52:26.224Z,11.31
2022-12-24T20:57:57.864Z,11.3
2022-12-24T21:03:29.659Z,11.35
2022-12-24T21:09:01.158Z,11.29
2022-12-24T21:14:33.137Z,11.3
2022-12-24T21:20:04.640Z,11.24
2022-12-24T21:25:36.704Z,11.3
2022-12-24T21:31:08.107Z,11.16
2022-12-24T21:36:44.209Z,11.06
2022-12-24T21:42:15.890Z,11.12
2022-12-24T21:47:47.804Z,10.99
2022-12-24T21:53:19.340Z,11.02
2022-12-24T21:58:51.319Z,11.05
2022-12-24T22:04:23.417Z,10.84
2022-12-24T22:09:54.832Z,10.84
2022-12-24T22:15:26.452Z,10.82
2022-12-24T22:20:57.960Z,10.6
2022-12-24T22:26:29.720Z,10.84
2022-12-24T22:32:01.385Z,10.58
2022-12-24T22:37:39.701Z,10.61
2022-12-24T22:43:11.355Z,10.54
2022-12-24T22:48:43.282Z,10.84
2022-12-24T22:54:14.866Z,10.83
2022-12-24T22:59:46.628Z,10.99
2022-12-24T23:05:18.164Z,10.84
2022-12-24T23:10:50.261Z,11.05
2022-12-24T23:16:21.639Z,10.62
2022-12-24T23:21:53.637Z,10.64
2022-12-24T23:27:25.059Z,10.62
2022-12-24T23:32:56.940Z,10.77
2022-12-24T23:38:32.934Z,10.95
2022-12-24T23:44:04.617Z,10.91
2022-12-24T23:49:36.512Z,10.79
2022-12-24T23:55:07.992Z,10.85
